sensor_id;sensor_type;location;lat;lon;timestamp;temperature;humidity
8475;DHT22;4274;52.012;8.448;2023-04-06T00:01:40;4.40;81.70
8475;DHT22;4274;52.012;8.448;2023-04-06T00:04:06;4.40;81.60
8475;DHT22;4274;52.012;8.448;2023-04-06T00:06:32;4.40;82.20
8475;DHT22;4274;52.012;8.448;2023-04-06T00:08:59;4.30;82.50
8475;DHT22;4274;52.012;8.448;2023-04-06T00:11:25;4.30;82.70
8475;DHT22;4274;52.012;8.448;2023-04-06T00:13:51;4.30;82.70
8475;DHT22;4274;52.012;8.448;2023-04-06T00:16:16;4.20;82.80
8475;DHT22;4274;52.012;8.448;2023-04-06T00:18:42;4.20;83.00
8475;DHT22;4274;52.012;8.448;2023-04-06T00:21:10;4.20;83.80
8475;DHT22;4274;52.012;8.448;2023-04-06T00:23:36;4.20;83.70
8475;DHT22;4274;52.012;8.448;2023-04-06T00:26:02;4.10;83.80
8475;DHT22;4274;52.012;8.448;2023-04-06T00:28:27;4.10;84.00
8475;DHT22;4274;52.012;8.448;2023-04-06T00:30:55;4.10;84.50
8475;DHT22;4274;52.012;8.448;2023-04-06T00:33:21;4.00;84.40
8475;DHT22;4274;52.012;8.448;2023-04-06T00:35:47;4.00;84.40
8475;DHT22;4274;52.012;8.448;2023-04-06T00:38:13;4.00;84.70
8475;DHT22;4274;52.012;8.448;2023-04-06T00:40:39;4.00;85.00
8475;DHT22;4274;52.012;8.448;2023-04-06T00:43:06;3.90;85.10
8475;DHT22;4274;52.012;8.448;2023-04-06T00:45:32;3.90;85.30
8475;DHT22;4274;52.012;8.448;2023-04-06T00:47:58;3.90;85.30
8475;DHT22;4274;52.012;8.448;2023-04-06T00:50:24;3.90;85.50
8475;DHT22;4274;52.012;8.448;2023-04-06T00:52:50;3.80;86.10
8475;DHT22;4274;52.012;8.448;2023-04-06T00:55:16;3.80;86.40
8475;DHT22;4274;52.012;8.448;2023-04-06T00:57:42;3.80;86.70
8475;DHT22;4274;52.012;8.448;2023-04-06T01:00:08;3.70;86.70
8475;DHT22;4274;52.012;8.448;2023-04-06T01:02:33;3.70;87.00
8475;DHT22;4274;52.012;8.448;2023-04-06T01:04:59;3.60;87.00
8475;DHT22;4274;52.012;8.448;2023-04-06T01:07:25;3.60;87.60
8475;DHT22;4274;52.012;8.448;2023-04-06T01:09:53;3.60;88.00
8475;DHT22;4274;52.012;8.448;2023-04-06T01:12:19;3.60;88.00
8475;DHT22;4274;52.012;8.448;2023-04-06T01:14:44;3.60;88.70
8475;DHT22;4274;52.012;8.448;2023-04-06T01:17:10;3.50;88.20
8475;DHT22;4274;52.012;8.448;2023-04-06T01:19:36;3.50;88.70
8475;DHT22;4274;52.012;8.448;2023-04-06T01:22:02;3.50;89.10
8475;DHT22;4274;52.012;8.448;2023-04-06T01:24:27;3.50;88.90
8475;DHT22;4274;52.012;8.448;2023-04-06T01:26:54;3.40;89.20
8475;DHT22;4274;52.012;8.448;2023-04-06T01:29:21;3.40;89.70
8475;DHT22;4274;52.012;8.448;2023-04-06T01:31:47;3.40;89.80
8475;DHT22;4274;52.012;8.448;2023-04-06T01:34:13;3.30;90.00
8475;DHT22;4274;52.012;8.448;2023-04-06T01:36:38;3.30;90.10
8475;DHT22;4274;52.012;8.448;2023-04-06T01:39:04;3.30;90.10
8475;DHT22;4274;52.012;8.448;2023-04-06T01:41:29;3.40;90.00
8475;DHT22;4274;52.012;8.448;2023-04-06T01:43:55;3.40;90.10
8475;DHT22;4274;52.012;8.448;2023-04-06T01:46:21;3.40;90.10
8475;DHT22;4274;52.012;8.448;2023-04-06T01:48:46;3.40;90.10
8475;DHT22;4274;52.012;8.448;2023-04-06T01:51:12;3.30;90.20
8475;DHT22;4274;52.012;8.448;2023-04-06T01:53:37;3.30;90.60
8475;DHT22;4274;52.012;8.448;2023-04-06T01:56:03;3.30;90.70
8475;DHT22;4274;52.012;8.448;2023-04-06T01:58:29;3.20;90.60
8475;DHT22;4274;52.012;8.448;2023-04-06T02:00:54;3.20;90.80
8475;DHT22;4274;52.012;8.448;2023-04-06T02:03:20;3.10;90.90
8475;DHT22;4274;52.012;8.448;2023-04-06T02:05:46;3.10;91.00
8475;DHT22;4274;52.012;8.448;2023-04-06T02:08:12;3.10;91.10
8475;DHT22;4274;52.012;8.448;2023-04-06T02:10:37;3.10;91.10
8475;DHT22;4274;52.012;8.448;2023-04-06T02:13:03;3.10;91.10
8475;DHT22;4274;52.012;8.448;2023-04-06T02:15:28;3.00;91.20
8475;DHT22;4274;52.012;8.448;2023-04-06T02:17:54;3.00;91.40
8475;DHT22;4274;52.012;8.448;2023-04-06T02:20:20;3.00;91.40
8475;DHT22;4274;52.012;8.448;2023-04-06T02:22:46;2.90;91.60
8475;DHT22;4274;52.012;8.448;2023-04-06T02:25:11;3.00;91.60
8475;DHT22;4274;52.012;8.448;2023-04-06T02:27:37;2.90;91.60
8475;DHT22;4274;52.012;8.448;2023-04-06T02:30:03;2.90;91.70
8475;DHT22;4274;52.012;8.448;2023-04-06T02:32:29;2.90;91.60
8475;DHT22;4274;52.012;8.448;2023-04-06T02:34:55;2.90;91.90
8475;DHT22;4274;52.012;8.448;2023-04-06T02:37:21;2.80;91.90
8475;DHT22;4274;52.012;8.448;2023-04-06T02:39:47;2.80;92.10
8475;DHT22;4274;52.012;8.448;2023-04-06T02:42:13;2.80;92.20
8475;DHT22;4274;52.012;8.448;2023-04-06T02:44:41;2.80;92.30
8475;DHT22;4274;52.012;8.448;2023-04-06T02:47:06;2.80;92.30
8475;DHT22;4274;52.012;8.448;2023-04-06T02:49:32;2.80;92.30
8475;DHT22;4274;52.012;8.448;2023-04-06T02:51:58;2.80;92.30
8475;DHT22;4274;52.012;8.448;2023-04-06T02:54:23;2.80;92.30
8475;DHT22;4274;52.012;8.448;2023-04-06T02:56:49;2.80;92.40
8475;DHT22;4274;52.012;8.448;2023-04-06T02:59:14;2.80;92.50
8475;DHT22;4274;52.012;8.448;2023-04-06T03:01:40;2.80;92.40
8475;DHT22;4274;52.012;8.448;2023-04-06T03:04:05;2.80;92.60
8475;DHT22;4274;52.012;8.448;2023-04-06T03:06:31;2.80;92.50
8475;DHT22;4274;52.012;8.448;2023-04-06T03:08:57;2.70;92.50
8475;DHT22;4274;52.012;8.448;2023-04-06T03:11:22;2.70;92.70
8475;DHT22;4274;52.012;8.448;2023-04-06T03:13:48;2.70;92.70
8475;DHT22;4274;52.012;8.448;2023-04-06T03:16:13;2.70;92.70
8475;DHT22;4274;52.012;8.448;2023-04-06T03:18:39;2.60;92.90
8475;DHT22;4274;52.012;8.448;2023-04-06T03:21:04;2.60;92.90
8475;DHT22;4274;52.012;8.448;2023-04-06T03:23:30;2.60;93.00
8475;DHT22;4274;52.012;8.448;2023-04-06T03:25:56;2.60;92.90
8475;DHT22;4274;52.012;8.448;2023-04-06T03:28:21;2.60;93.10
8475;DHT22;4274;52.012;8.448;2023-04-06T03:30:47;2.50;93.30
8475;DHT22;4274;52.012;8.448;2023-04-06T03:33:12;2.50;93.20
8475;DHT22;4274;52.012;8.448;2023-04-06T03:35:38;2.50;93.40
8475;DHT22;4274;52.012;8.448;2023-04-06T03:38:04;2.50;93.30
8475;DHT22;4274;52.012;8.448;2023-04-06T03:40:32;2.50;93.50
8475;DHT22;4274;52.012;8.448;2023-04-06T03:42:59;2.50;93.50
8475;DHT22;4274;52.012;8.448;2023-04-06T03:45:25;2.50;93.60
8475;DHT22;4274;52.012;8.448;2023-04-06T03:47:50;2.50;93.60
8475;DHT22;4274;52.012;8.448;2023-04-06T03:50:16;2.50;93.70
8475;DHT22;4274;52.012;8.448;2023-04-06T03:52:41;2.50;93.60
8475;DHT22;4274;52.012;8.448;2023-04-06T03:55:07;2.50;93.60
8475;DHT22;4274;52.012;8.448;2023-04-06T03:57:33;2.40;93.80
8475;DHT22;4274;52.012;8.448;2023-04-06T03:59:59;2.40;93.80
8475;DHT22;4274;52.012;8.448;2023-04-06T04:02:25;2.40;93.80
8475;DHT22;4274;52.012;8.448;2023-04-06T04:04:50;2.40;93.90
8475;DHT22;4274;52.012;8.448;2023-04-06T04:07:16;2.30;94.00
8475;DHT22;4274;52.012;8.448;2023-04-06T04:09:41;2.30;94.00
8475;DHT22;4274;52.012;8.448;2023-04-06T04:12:07;2.30;94.10
8475;DHT22;4274;52.012;8.448;2023-04-06T04:14:33;2.30;94.20
8475;DHT22;4274;52.012;8.448;2023-04-06T04:16:58;2.30;94.10
8475;DHT22;4274;52.012;8.448;2023-04-06T04:19:24;2.30;94.10
8475;DHT22;4274;52.012;8.448;2023-04-06T04:21:49;2.20;94.20
8475;DHT22;4274;52.012;8.448;2023-04-06T04:24:15;2.20;94.40
8475;DHT22;4274;52.012;8.448;2023-04-06T04:26:41;2.20;94.30
8475;DHT22;4274;52.012;8.448;2023-04-06T04:29:06;2.20;94.20
8475;DHT22;4274;52.012;8.448;2023-04-06T04:31:32;2.20;94.30
8475;DHT22;4274;52.012;8.448;2023-04-06T04:33:59;2.20;94.30
8475;DHT22;4274;52.012;8.448;2023-04-06T04:36:25;2.20;94.40
8475;DHT22;4274;52.012;8.448;2023-04-06T04:38:52;2.20;94.30
8475;DHT22;4274;52.012;8.448;2023-04-06T04:41:17;2.20;94.30
8475;DHT22;4274;52.012;8.448;2023-04-06T04:43:44;2.20;94.40
8475;DHT22;4274;52.012;8.448;2023-04-06T04:46:10;2.20;94.60
8475;DHT22;4274;52.012;8.448;2023-04-06T04:48:35;2.20;94.60
8475;DHT22;4274;52.012;8.448;2023-04-06T04:51:01;2.20;94.60
8475;DHT22;4274;52.012;8.448;2023-04-06T04:53:27;2.20;94.60
8475;DHT22;4274;52.012;8.448;2023-04-06T04:55:53;2.20;94.70
8475;DHT22;4274;52.012;8.448;2023-04-06T04:58:18;2.10;94.60
8475;DHT22;4274;52.012;8.448;2023-04-06T05:00:45;2.10;94.80
8475;DHT22;4274;52.012;8.448;2023-04-06T05:03:23;2.20;94.90
8475;DHT22;4274;52.012;8.448;2023-04-06T05:05:49;2.10;94.80
8475;DHT22;4274;52.012;8.448;2023-04-06T05:08:15;2.10;94.70
8475;DHT22;4274;52.012;8.448;2023-04-06T05:10:41;2.10;94.90
8475;DHT22;4274;52.012;8.448;2023-04-06T05:13:07;2.20;95.00
8475;DHT22;4274;52.012;8.448;2023-04-06T05:15:33;2.20;94.80
8475;DHT22;4274;52.012;8.448;2023-04-06T05:18:04;2.20;95.00
8475;DHT22;4274;52.012;8.448;2023-04-06T05:20:29;2.20;94.90
8475;DHT22;4274;52.012;8.448;2023-04-06T05:22:55;2.30;94.90
8475;DHT22;4274;52.012;8.448;2023-04-06T05:25:21;2.30;94.70
8475;DHT22;4274;52.012;8.448;2023-04-06T05:27:46;2.40;94.60
8475;DHT22;4274;52.012;8.448;2023-04-06T05:30:12;2.50;94.50
8475;DHT22;4274;52.012;8.448;2023-04-06T05:32:38;2.50;94.40
8475;DHT22;4274;52.012;8.448;2023-04-06T05:35:03;2.60;94.10
8475;DHT22;4274;52.012;8.448;2023-04-06T05:37:29;2.60;93.90
8475;DHT22;4274;52.012;8.448;2023-04-06T05:39:55;2.70;93.80
8475;DHT22;4274;52.012;8.448;2023-04-06T05:42:21;2.80;93.60
8475;DHT22;4274;52.012;8.448;2023-04-06T05:44:47;2.90;93.70
8475;DHT22;4274;52.012;8.448;2023-04-06T05:47:13;3.00;93.10
8475;DHT22;4274;52.012;8.448;2023-04-06T05:49:38;3.10;93.00
8475;DHT22;4274;52.012;8.448;2023-04-06T05:52:04;3.20;92.80
8475;DHT22;4274;52.012;8.448;2023-04-06T05:54:29;3.20;92.60
8475;DHT22;4274;52.012;8.448;2023-04-06T05:56:55;3.30;92.70
8475;DHT22;4274;52.012;8.448;2023-04-06T05:59:21;3.40;92.40
8475;DHT22;4274;52.012;8.448;2023-04-06T06:01:46;3.50;92.30
8475;DHT22;4274;52.012;8.448;2023-04-06T06:04:12;3.70;92.10
8475;DHT22;4274;52.012;8.448;2023-04-06T06:06:38;3.90;92.00
8475;DHT22;4274;52.012;8.448;2023-04-06T06:09:03;4.30;92.20
8475;DHT22;4274;52.012;8.448;2023-04-06T06:11:29;4.80;91.30
8475;DHT22;4274;52.012;8.448;2023-04-06T06:13:55;5.40;89.00
8475;DHT22;4274;52.012;8.448;2023-04-06T06:16:21;6.00;88.40
8475;DHT22;4274;52.012;8.448;2023-04-06T06:18:47;6.50;85.90
8475;DHT22;4274;52.012;8.448;2023-04-06T06:21:12;7.00;84.60
8475;DHT22;4274;52.012;8.448;2023-04-06T06:23:38;7.50;84.20
8475;DHT22;4274;52.012;8.448;2023-04-06T06:26:04;7.90;82.50
8475;DHT22;4274;52.012;8.448;2023-04-06T06:28:30;8.30;81.30
8475;DHT22;4274;52.012;8.448;2023-04-06T06:30:56;8.70;80.50
8475;DHT22;4274;52.012;8.448;2023-04-06T06:33:22;9.10;78.30
8475;DHT22;4274;52.012;8.448;2023-04-06T06:35:48;9.30;78.10
8475;DHT22;4274;52.012;8.448;2023-04-06T06:38:13;9.60;77.30
8475;DHT22;4274;52.012;8.448;2023-04-06T06:40:40;9.70;75.50
8475;DHT22;4274;52.012;8.448;2023-04-06T06:43:06;9.90;77.00
8475;DHT22;4274;52.012;8.448;2023-04-06T06:45:32;10.10;74.90
8475;DHT22;4274;52.012;8.448;2023-04-06T06:47:57;10.30;73.20
8475;DHT22;4274;52.012;8.448;2023-04-06T06:50:23;10.30;73.40
8475;DHT22;4274;52.012;8.448;2023-04-06T06:52:49;10.50;73.20
8475;DHT22;4274;52.012;8.448;2023-04-06T06:55:14;10.60;72.20
8475;DHT22;4274;52.012;8.448;2023-04-06T06:57:40;10.70;71.80
8475;DHT22;4274;52.012;8.448;2023-04-06T07:00:08;10.90;71.20
8475;DHT22;4274;52.012;8.448;2023-04-06T07:02:35;11.20;70.60
8475;DHT22;4274;52.012;8.448;2023-04-06T07:05:02;11.60;71.80
8475;DHT22;4274;52.012;8.448;2023-04-06T07:07:28;12.00;68.70
8475;DHT22;4274;52.012;8.448;2023-04-06T07:09:53;12.40;66.80
8475;DHT22;4274;52.012;8.448;2023-04-06T07:12:19;12.70;66.20
8475;DHT22;4274;52.012;8.448;2023-04-06T07:14:44;12.90;65.20
8475;DHT22;4274;52.012;8.448;2023-04-06T07:17:10;13.00;64.70
8475;DHT22;4274;52.012;8.448;2023-04-06T07:19:36;13.10;63.80
8475;DHT22;4274;52.012;8.448;2023-04-06T07:22:02;13.20;64.70
8475;DHT22;4274;52.012;8.448;2023-04-06T07:24:28;13.60;65.80
8475;DHT22;4274;52.012;8.448;2023-04-06T07:26:54;14.20;64.40
8475;DHT22;4274;52.012;8.448;2023-04-06T07:29:21;14.60;63.10
8475;DHT22;4274;52.012;8.448;2023-04-06T07:31:48;15.00;63.20
8475;DHT22;4274;52.012;8.448;2023-04-06T07:34:14;15.50;61.40
8475;DHT22;4274;52.012;8.448;2023-04-06T07:36:40;15.70;61.00
8475;DHT22;4274;52.012;8.448;2023-04-06T07:39:06;16.00;60.40
8475;DHT22;4274;52.012;8.448;2023-04-06T07:41:32;16.30;61.30
8475;DHT22;4274;52.012;8.448;2023-04-06T07:43:57;16.60;59.80
8475;DHT22;4274;52.012;8.448;2023-04-06T07:46:23;16.80;59.20
8475;DHT22;4274;52.012;8.448;2023-04-06T07:48:48;16.80;58.10
8475;DHT22;4274;52.012;8.448;2023-04-06T07:51:15;16.60;58.70
8475;DHT22;4274;52.012;8.448;2023-04-06T07:53:46;16.50;58.10
8475;DHT22;4274;52.012;8.448;2023-04-06T07:56:11;16.40;57.70
8475;DHT22;4274;52.012;8.448;2023-04-06T07:58:41;16.30;59.20
8475;DHT22;4274;52.012;8.448;2023-04-06T08:01:06;16.40;58.30
8475;DHT22;4274;52.012;8.448;2023-04-06T08:03:34;16.40;57.40
8475;DHT22;4274;52.012;8.448;2023-04-06T08:06:00;16.40;58.00
8475;DHT22;4274;52.012;8.448;2023-04-06T08:08:25;16.60;57.90
8475;DHT22;4274;52.012;8.448;2023-04-06T08:10:51;16.40;57.80
8475;DHT22;4274;52.012;8.448;2023-04-06T08:13:16;16.40;57.80
8475;DHT22;4274;52.012;8.448;2023-04-06T08:15:42;16.60;59.40
8475;DHT22;4274;52.012;8.448;2023-04-06T08:18:08;16.90;57.60
8475;DHT22;4274;52.012;8.448;2023-04-06T08:20:34;17.10;57.80
8475;DHT22;4274;52.012;8.448;2023-04-06T08:23:01;17.20;56.00
8475;DHT22;4274;52.012;8.448;2023-04-06T08:25:26;17.10;57.10
8475;DHT22;4274;52.012;8.448;2023-04-06T08:27:52;17.10;56.80
8475;DHT22;4274;52.012;8.448;2023-04-06T08:30:18;17.30;56.60
8475;DHT22;4274;52.012;8.448;2023-04-06T08:32:45;17.40;57.10
8475;DHT22;4274;52.012;8.448;2023-04-06T08:35:10;17.40;56.90
8475;DHT22;4274;52.012;8.448;2023-04-06T08:37:36;17.50;56.70
8475;DHT22;4274;52.012;8.448;2023-04-06T08:40:02;17.80;57.30
8475;DHT22;4274;52.012;8.448;2023-04-06T08:42:32;18.10;56.50
8475;DHT22;4274;52.012;8.448;2023-04-06T08:44:58;18.00;56.10
8475;DHT22;4274;52.012;8.448;2023-04-06T08:47:24;17.90;55.80
8475;DHT22;4274;52.012;8.448;2023-04-06T08:49:51;18.10;56.20
8475;DHT22;4274;52.012;8.448;2023-04-06T08:52:18;18.10;55.30
8475;DHT22;4274;52.012;8.448;2023-04-06T08:54:44;17.90;55.30
8475;DHT22;4274;52.012;8.448;2023-04-06T08:57:10;17.80;56.40
8475;DHT22;4274;52.012;8.448;2023-04-06T08:59:36;18.10;56.20
8475;DHT22;4274;52.012;8.448;2023-04-06T09:02:04;18.30;56.30
8475;DHT22;4274;52.012;8.448;2023-04-06T09:04:33;18.60;55.90
8475;DHT22;4274;52.012;8.448;2023-04-06T09:07:00;18.60;55.60
8475;DHT22;4274;52.012;8.448;2023-04-06T09:09:26;18.70;57.20
8475;DHT22;4274;52.012;8.448;2023-04-06T09:11:52;18.60;56.00
8475;DHT22;4274;52.012;8.448;2023-04-06T09:14:36;18.60;55.70
8475;DHT22;4274;52.012;8.448;2023-04-06T09:17:03;18.70;56.20
8475;DHT22;4274;52.012;8.448;2023-04-06T09:19:28;19.00;55.00
8475;DHT22;4274;52.012;8.448;2023-04-06T09:22:06;19.00;56.70
8475;DHT22;4274;52.012;8.448;2023-04-06T09:24:45;19.20;56.30
8475;DHT22;4274;52.012;8.448;2023-04-06T09:27:10;19.30;56.80
8475;DHT22;4274;52.012;8.448;2023-04-06T09:29:36;19.60;55.50
8475;DHT22;4274;52.012;8.448;2023-04-06T09:32:06;20.10;56.70
8475;DHT22;4274;52.012;8.448;2023-04-06T09:34:36;20.40;55.40
8475;DHT22;4274;52.012;8.448;2023-04-06T09:37:15;20.50;55.00
8475;DHT22;4274;52.012;8.448;2023-04-06T09:39:41;20.50;55.70
8475;DHT22;4274;52.012;8.448;2023-04-06T09:42:06;20.40;54.60
8475;DHT22;4274;52.012;8.448;2023-04-06T09:44:32;20.40;55.10
8475;DHT22;4274;52.012;8.448;2023-04-06T09:46:58;20.80;55.80
8475;DHT22;4274;52.012;8.448;2023-04-06T09:49:24;21.30;56.30
8475;DHT22;4274;52.012;8.448;2023-04-06T09:51:59;22.10;54.90
8475;DHT22;4274;52.012;8.448;2023-04-06T09:54:29;22.50;54.50
8475;DHT22;4274;52.012;8.448;2023-04-06T09:57:03;22.70;53.40
8475;DHT22;4274;52.012;8.448;2023-04-06T10:00:08;22.70;53.70
8475;DHT22;4274;52.012;8.448;2023-04-06T10:03:04;22.70;53.00
8475;DHT22;4274;52.012;8.448;2023-04-06T10:05:46;22.50;51.70
8475;DHT22;4274;52.012;8.448;2023-04-06T10:08:13;22.40;52.20
8475;DHT22;4274;52.012;8.448;2023-04-06T10:10:41;22.40;52.60
8475;DHT22;4274;52.012;8.448;2023-04-06T10:13:07;22.80;53.40
8475;DHT22;4274;52.012;8.448;2023-04-06T10:15:35;23.10;51.80
8475;DHT22;4274;52.012;8.448;2023-04-06T10:18:03;22.90;51.80
8475;DHT22;4274;52.012;8.448;2023-04-06T10:20:39;23.10;51.50
8475;DHT22;4274;52.012;8.448;2023-04-06T10:23:36;23.30;52.10
8475;DHT22;4274;52.012;8.448;2023-04-06T10:26:03;23.50;51.00
8475;DHT22;4274;52.012;8.448;2023-04-06T10:28:34;23.40;49.80
8475;DHT22;4274;52.012;8.448;2023-04-06T10:31:03;23.60;51.60
8475;DHT22;4274;52.012;8.448;2023-04-06T10:33:29;23.60;50.20
8475;DHT22;4274;52.012;8.448;2023-04-06T10:35:55;23.20;50.20
8475;DHT22;4274;52.012;8.448;2023-04-06T10:38:32;22.90;50.10
8475;DHT22;4274;52.012;8.448;2023-04-06T10:41:07;22.60;50.80
8475;DHT22;4274;52.012;8.448;2023-04-06T10:43:35;22.80;51.70
8475;DHT22;4274;52.012;8.448;2023-04-06T10:46:01;23.20;52.10
8475;DHT22;4274;52.012;8.448;2023-04-06T10:51:11;23.30;50.10
8475;DHT22;4274;52.012;8.448;2023-04-06T10:53:37;22.80;49.50
8475;DHT22;4274;52.012;8.448;2023-04-06T10:56:03;22.20;50.60
8475;DHT22;4274;52.012;8.448;2023-04-06T10:58:29;21.90;52.80
8475;DHT22;4274;52.012;8.448;2023-04-06T11:00:56;22.00;53.10
8475;DHT22;4274;52.012;8.448;2023-04-06T11:03:22;22.30;53.10
8475;DHT22;4274;52.012;8.448;2023-04-06T11:05:49;22.70;52.90
8475;DHT22;4274;52.012;8.448;2023-04-06T11:08:31;23.20;51.10
8475;DHT22;4274;52.012;8.448;2023-04-06T11:11:08;23.20;50.90
8475;DHT22;4274;52.012;8.448;2023-04-06T11:13:46;23.30;51.10
8475;DHT22;4274;52.012;8.448;2023-04-06T11:16:22;22.90;51.00
8475;DHT22;4274;52.012;8.448;2023-04-06T11:21:14;22.30;50.90
8475;DHT22;4274;52.012;8.448;2023-04-06T11:23:40;22.40;51.60
8475;DHT22;4274;52.012;8.448;2023-04-06T11:26:13;22.60;51.40
8475;DHT22;4274;52.012;8.448;2023-04-06T11:28:42;22.90;51.30
8475;DHT22;4274;52.012;8.448;2023-04-06T11:31:11;23.20;51.60
8475;DHT22;4274;52.012;8.448;2023-04-06T11:33:37;23.00;51.20
8475;DHT22;4274;52.012;8.448;2023-04-06T11:36:04;22.80;51.40
8475;DHT22;4274;52.012;8.448;2023-04-06T11:38:30;22.80;51.60
8475;DHT22;4274;52.012;8.448;2023-04-06T11:40:56;23.00;52.70
8475;DHT22;4274;52.012;8.448;2023-04-06T11:43:29;23.30;50.90
8475;DHT22;4274;52.012;8.448;2023-04-06T11:46:04;23.50;50.50
8475;DHT22;4274;52.012;8.448;2023-04-06T11:48:32;24.00;50.20
8475;DHT22;4274;52.012;8.448;2023-04-06T11:50:58;23.80;49.60
8475;DHT22;4274;52.012;8.448;2023-04-06T11:53:27;23.50;50.50
8475;DHT22;4274;52.012;8.448;2023-04-06T11:55:54;23.20;50.10
8475;DHT22;4274;52.012;8.448;2023-04-06T11:58:19;23.10;49.00
8475;DHT22;4274;52.012;8.448;2023-04-06T12:00:45;23.00;49.10
8475;DHT22;4274;52.012;8.448;2023-04-06T12:03:12;22.90;48.50
8475;DHT22;4274;52.012;8.448;2023-04-06T12:05:38;22.80;49.40
8475;DHT22;4274;52.012;8.448;2023-04-06T12:08:04;22.90;48.30
8475;DHT22;4274;52.012;8.448;2023-04-06T12:10:29;22.50;46.10
8475;DHT22;4274;52.012;8.448;2023-04-06T12:12:55;22.10;46.30
8475;DHT22;4274;52.012;8.448;2023-04-06T12:15:21;21.80;45.40
8475;DHT22;4274;52.012;8.448;2023-04-06T12:17:47;21.50;47.20
8475;DHT22;4274;52.012;8.448;2023-04-06T12:20:12;21.40;47.40
8475;DHT22;4274;52.012;8.448;2023-04-06T12:22:39;21.20;46.60
8475;DHT22;4274;52.012;8.448;2023-04-06T12:25:05;21.00;47.70
8475;DHT22;4274;52.012;8.448;2023-04-06T12:27:32;21.10;45.90
8475;DHT22;4274;52.012;8.448;2023-04-06T12:29:57;21.40;47.70
8475;DHT22;4274;52.012;8.448;2023-04-06T12:32:23;21.50;47.00
8475;DHT22;4274;52.012;8.448;2023-04-06T12:34:49;21.50;46.90
8475;DHT22;4274;52.012;8.448;2023-04-06T12:37:14;21.40;47.30
8475;DHT22;4274;52.012;8.448;2023-04-06T12:39:40;21.60;47.40
8475;DHT22;4274;52.012;8.448;2023-04-06T12:42:06;21.50;46.00
8475;DHT22;4274;52.012;8.448;2023-04-06T12:44:32;21.40;47.40
8475;DHT22;4274;52.012;8.448;2023-04-06T12:46:57;21.30;47.90
8475;DHT22;4274;52.012;8.448;2023-04-06T12:49:23;21.40;47.70
8475;DHT22;4274;52.012;8.448;2023-04-06T12:51:48;21.40;48.10
8475;DHT22;4274;52.012;8.448;2023-04-06T12:54:15;21.30;47.80
8475;DHT22;4274;52.012;8.448;2023-04-06T12:56:41;20.70;47.80
8475;DHT22;4274;52.012;8.448;2023-04-06T12:59:06;20.20;48.30
8475;DHT22;4274;52.012;8.448;2023-04-06T13:01:32;19.80;47.30
8475;DHT22;4274;52.012;8.448;2023-04-06T13:03:58;19.60;48.00
8475;DHT22;4274;52.012;8.448;2023-04-06T13:06:24;19.40;47.50
8475;DHT22;4274;52.012;8.448;2023-04-06T13:08:52;19.20;47.90
8475;DHT22;4274;52.012;8.448;2023-04-06T13:11:18;19.00;47.70
8475;DHT22;4274;52.012;8.448;2023-04-06T13:13:45;18.70;48.00
8475;DHT22;4274;52.012;8.448;2023-04-06T13:16:11;18.70;48.30
8475;DHT22;4274;52.012;8.448;2023-04-06T13:18:37;18.70;47.80
8475;DHT22;4274;52.012;8.448;2023-04-06T13:21:04;18.50;47.50
8475;DHT22;4274;52.012;8.448;2023-04-06T13:23:31;18.20;46.80
8475;DHT22;4274;52.012;8.448;2023-04-06T13:26:14;17.90;46.10
8475;DHT22;4274;52.012;8.448;2023-04-06T13:28:41;17.80;47.20
8475;DHT22;4274;52.012;8.448;2023-04-06T13:31:07;18.10;48.30
8475;DHT22;4274;52.012;8.448;2023-04-06T13:33:33;18.10;48.70
8475;DHT22;4274;52.012;8.448;2023-04-06T13:36:00;17.90;49.60
8475;DHT22;4274;52.012;8.448;2023-04-06T13:38:25;17.50;48.10
8475;DHT22;4274;52.012;8.448;2023-04-06T13:40:51;17.10;49.00
8475;DHT22;4274;52.012;8.448;2023-04-06T13:43:17;16.90;49.80
8475;DHT22;4274;52.012;8.448;2023-04-06T13:45:49;16.80;50.10
8475;DHT22;4274;52.012;8.448;2023-04-06T13:48:15;16.70;51.20
8475;DHT22;4274;52.012;8.448;2023-04-06T13:50:41;16.50;51.10
8475;DHT22;4274;52.012;8.448;2023-04-06T13:53:06;16.30;50.90
8475;DHT22;4274;52.012;8.448;2023-04-06T13:55:32;16.20;51.40
8475;DHT22;4274;52.012;8.448;2023-04-06T13:57:57;16.00;51.40
8475;DHT22;4274;52.012;8.448;2023-04-06T14:00:23;15.70;52.10
8475;DHT22;4274;52.012;8.448;2023-04-06T14:02:49;15.60;50.90
8475;DHT22;4274;52.012;8.448;2023-04-06T14:05:14;15.40;50.60
8475;DHT22;4274;52.012;8.448;2023-04-06T14:07:40;15.30;51.60
8475;DHT22;4274;52.012;8.448;2023-04-06T14:10:06;15.20;52.50
8475;DHT22;4274;52.012;8.448;2023-04-06T14:12:40;15.20;54.60
8475;DHT22;4274;52.012;8.448;2023-04-06T14:15:06;15.30;53.80
8475;DHT22;4274;52.012;8.448;2023-04-06T14:17:32;15.40;55.40
8475;DHT22;4274;52.012;8.448;2023-04-06T14:19:57;15.50;54.50
8475;DHT22;4274;52.012;8.448;2023-04-06T14:22:23;15.50;53.60
8475;DHT22;4274;52.012;8.448;2023-04-06T14:24:48;15.40;54.00
8475;DHT22;4274;52.012;8.448;2023-04-06T14:27:14;15.40;54.30
8475;DHT22;4274;52.012;8.448;2023-04-06T14:29:40;15.40;55.40
8475;DHT22;4274;52.012;8.448;2023-04-06T14:32:05;15.40;53.80
8475;DHT22;4274;52.012;8.448;2023-04-06T14:34:31;15.40;53.10
8475;DHT22;4274;52.012;8.448;2023-04-06T14:36:56;15.40;53.10
8475;DHT22;4274;52.012;8.448;2023-04-06T14:39:22;15.50;54.60
8475;DHT22;4274;52.012;8.448;2023-04-06T14:41:47;15.60;54.50
8475;DHT22;4274;52.012;8.448;2023-04-06T14:44:15;15.60;53.50
8475;DHT22;4274;52.012;8.448;2023-04-06T14:46:40;15.70;54.00
8475;DHT22;4274;52.012;8.448;2023-04-06T14:49:06;15.70;54.60
8475;DHT22;4274;52.012;8.448;2023-04-06T14:51:33;15.60;54.00
8475;DHT22;4274;52.012;8.448;2023-04-06T14:54:00;15.60;54.40
8475;DHT22;4274;52.012;8.448;2023-04-06T14:56:25;15.50;53.20
8475;DHT22;4274;52.012;8.448;2023-04-06T14:58:51;15.40;54.30
8475;DHT22;4274;52.012;8.448;2023-04-06T15:01:18;15.30;53.40
8475;DHT22;4274;52.012;8.448;2023-04-06T15:03:44;15.20;53.40
8475;DHT22;4274;52.012;8.448;2023-04-06T15:06:14;15.20;53.50
8475;DHT22;4274;52.012;8.448;2023-04-06T15:08:45;15.10;53.90
8475;DHT22;4274;52.012;8.448;2023-04-06T15:11:12;15.10;54.40
8475;DHT22;4274;52.012;8.448;2023-04-06T15:13:39;15.20;55.60
8475;DHT22;4274;52.012;8.448;2023-04-06T15:16:05;15.10;54.30
8475;DHT22;4274;52.012;8.448;2023-04-06T15:18:31;15.00;54.20
8475;DHT22;4274;52.012;8.448;2023-04-06T15:20:57;14.90;55.00
8475;DHT22;4274;52.012;8.448;2023-04-06T15:23:23;14.90;55.80
8475;DHT22;4274;52.012;8.448;2023-04-06T15:25:48;14.80;54.90
8475;DHT22;4274;52.012;8.448;2023-04-06T15:28:14;14.70;54.60
8475;DHT22;4274;52.012;8.448;2023-04-06T15:30:40;14.60;54.50
8475;DHT22;4274;52.012;8.448;2023-04-06T15:33:07;14.60;55.10
8475;DHT22;4274;52.012;8.448;2023-04-06T15:35:34;14.50;55.40
8475;DHT22;4274;52.012;8.448;2023-04-06T15:38:04;14.50;56.10
8475;DHT22;4274;52.012;8.448;2023-04-06T15:40:30;14.40;55.80
8475;DHT22;4274;52.012;8.448;2023-04-06T15:42:55;14.40;55.70
8475;DHT22;4274;52.012;8.448;2023-04-06T15:45:21;14.30;55.70
8475;DHT22;4274;52.012;8.448;2023-04-06T15:47:46;14.30;55.40
8475;DHT22;4274;52.012;8.448;2023-04-06T15:50:14;14.30;55.80
8475;DHT22;4274;52.012;8.448;2023-04-06T15:52:39;14.30;56.30
8475;DHT22;4274;52.012;8.448;2023-04-06T15:55:06;14.30;56.30
8475;DHT22;4274;52.012;8.448;2023-04-06T15:57:32;14.30;56.40
8475;DHT22;4274;52.012;8.448;2023-04-06T15:59:58;14.20;56.40
8475;DHT22;4274;52.012;8.448;2023-04-06T16:02:24;14.20;56.70
8475;DHT22;4274;52.012;8.448;2023-04-06T16:04:57;14.10;57.20
8475;DHT22;4274;52.012;8.448;2023-04-06T16:07:25;14.10;57.00
8475;DHT22;4274;52.012;8.448;2023-04-06T16:09:51;14.10;56.60
8475;DHT22;4274;52.012;8.448;2023-04-06T16:12:17;14.00;56.80